createdAt,value
2022-12-26T00:00:37.608Z,3.10
2022-12-26T00:03:04.561Z,3.10
2022-12-26T00:05:36.685Z,3.00
2022-12-26T00:08:04.212Z,3.00
2022-12-26T00:10:30.890Z,2.90
2022-12-26T00:13:38.332Z,2.90
2022-12-26T00:15:44.492Z,2.80
2022-12-26T00:18:11.252Z,2.70
2022-12-26T00:20:37.994Z,2.70
2022-12-26T00:23:04.671Z,2.70
2022-12-26T00:25:34.312Z,2.80
2022-12-26T00:28:01.343Z,2.70
2022-12-26T00:30:28.082Z,2.70
2022-12-26T00:32:54.837Z,2.60
2022-12-26T00:35:21.923Z,2.50
2022-12-26T00:37:48.574Z,2.50
2022-12-26T00:40:15.278Z,2.50
2022-12-26T00:42:41.939Z,2.50
2022-12-26T00:45:08.945Z,2.50
2022-12-26T00:47:35.639Z,2.40
2022-12-26T00:50:13.156Z,2.40
2022-12-26T00:52:42.747Z,2.40
2022-12-26T00:55:10.368Z,2.40
2022-12-26T00:57:37.072Z,2.40
2022-12-26T01:00:04.807Z,2.50
2022-12-26T01:02:37.765Z,2.50
2022-12-26T01:05:08.832Z,2.50
2022-12-26T01:08:22.985Z,2.50
2022-12-26T01:10:27.435Z,2.50
2022-12-26T01:12:54.237Z,2.40
2022-12-26T01:15:20.944Z,2.30
2022-12-26T01:17:47.688Z,2.30
2022-12-26T01:20:14.685Z,2.20
2022-12-26T01:22:41.392Z,2.20
2022-12-26T01:25:08.708Z,2.20
2022-12-26T01:27:35.353Z,2.20
2022-12-26T01:30:02.050Z,2.10
2022-12-26T01:32:28.797Z,2.10
2022-12-26T01:34:56.202Z,2.00
2022-12-26T01:37:25.879Z,2.10
2022-12-26T01:39:52.585Z,2.00
2022-12-26T01:42:22.301Z,2.00
2022-12-26T01:45:04.421Z,2.00
2022-12-26T01:47:51.810Z,2.00
2022-12-26T01:50:27.752Z,2.00
2022-12-26T01:52:56.611Z,2.00
2022-12-26T01:55:23.550Z,2.00
2022-12-26T01:58:06.414Z,2.00
2022-12-26T02:00:34.117Z,2.00
2022-12-26T02:03:19.440Z,2.00
2022-12-26T02:05:46.309Z,2.00
2022-12-26T02:08:21.494Z,1.90
2022-12-26T02:10:55.085Z,2.00
2022-12-26T02:13:21.893Z,2.00
2022-12-26T02:15:48.694Z,2.00
2022-12-26T02:18:15.427Z,1.90
2022-12-26T02:20:56.365Z,1.90
2022-12-26T02:24:01.497Z,1.90
2022-12-26T02:26:58.112Z,1.90
2022-12-26T02:29:55.042Z,2.00
2022-12-26T02:32:48.130Z,1.80
2022-12-26T02:35:20.708Z,1.80
2022-12-26T02:38:45.961Z,1.80
2022-12-26T02:41:39.377Z,1.80
2022-12-26T02:45:11.295Z,1.80
2022-12-26T02:47:57.195Z,1.70
2022-12-26T02:51:05.872Z,1.70
2022-12-26T02:54:18.673Z,1.70
2022-12-26T02:57:18.249Z,1.70
2022-12-26T03:00:15.903Z,1.60
2022-12-26T03:03:22.473Z,1.60
2022-12-26T03:06:14.744Z,1.60
2022-12-26T03:09:13.993Z,1.60
2022-12-26T03:12:01.479Z,1.70
2022-12-26T03:14:38.090Z,1.70
2022-12-26T03:17:20.975Z,1.70
2022-12-26T03:20:01.120Z,1.60
2022-12-26T03:22:46.725Z,1.60
2022-12-26T03:25:38.825Z,1.60
2022-12-26T03:28:05.498Z,1.70
2022-12-26T03:30:50.503Z,1.60
2022-12-26T03:33:58.672Z,1.60
2022-12-26T03:37:03.646Z,1.50
2022-12-26T03:40:08.050Z,1.50
2022-12-26T03:43:10.828Z,1.40
2022-12-26T03:46:12.741Z,1.30
2022-12-26T03:49:08.028Z,1.30
2022-12-26T03:52:18.313Z,1.40
2022-12-26T03:55:25.500Z,1.30
2022-12-26T03:58:44.781Z,1.30
2022-12-26T04:01:36.412Z,1.30
2022-12-26T04:04:27.136Z,1.40
2022-12-26T04:07:17.597Z,1.40
2022-12-26T04:10:30.120Z,1.40
2022-12-26T04:13:18.136Z,1.50
2022-12-26T04:16:11.900Z,1.60
2022-12-26T04:19:21.159Z,1.80
2022-12-26T04:22:25.311Z,1.80
2022-12-26T04:25:48.363Z,1.90
2022-12-26T04:28:35.332Z,1.90
2022-12-26T04:31:50.673Z,1.90
2022-12-26T04:34:54.523Z,2.00
2022-12-26T04:37:43.704Z,2.10
2022-12-26T04:40:36.763Z,2.30
2022-12-26T04:43:46.605Z,2.50
2022-12-26T04:46:10.883Z,2.70
2022-12-26T04:49:03.766Z,2.70
2022-12-26T04:51:30.361Z,2.70
2022-12-26T04:53:57.103Z,2.60
2022-12-26T04:56:24.099Z,2.60
2022-12-26T04:58:50.843Z,2.60
2022-12-26T05:01:36.296Z,2.60
2022-12-26T05:04:21.495Z,2.70
2022-12-26T05:07:07.023Z,2.90
2022-12-26T05:09:36.754Z,3.00
2022-12-26T05:12:09.058Z,3.10
2022-12-26T05:14:36.769Z,3.30
2022-12-26T05:17:24.187Z,3.50
2022-12-26T05:20:09.781Z,4.20
2022-12-26T05:22:59.444Z,5.10
2022-12-26T05:25:50.569Z,6.20
2022-12-26T05:28:36.476Z,7.00
2022-12-26T05:31:04.206Z,7.30
2022-12-26T05:33:49.488Z,7.30
2022-12-26T05:36:18.948Z,7.40
2022-12-26T05:38:45.774Z,7.40
2022-12-26T05:41:12.659Z,7.20
2022-12-26T05:43:39.510Z,7.00
2022-12-26T05:46:06.346Z,6.30
2022-12-26T05:48:33.011Z,5.70
2022-12-26T05:51:01.493Z,5.20
2022-12-26T05:53:29.350Z,4.80
2022-12-26T05:56:01.466Z,4.70
2022-12-26T05:58:28.520Z,4.60
2022-12-26T06:01:07.982Z,4.60
2022-12-26T06:03:35.678Z,4.60
2022-12-26T06:06:02.884Z,4.50
2022-12-26T06:08:29.732Z,4.50
2022-12-26T06:10:56.717Z,4.50
2022-12-26T06:13:23.527Z,4.60
2022-12-26T06:15:50.591Z,4.50
2022-12-26T06:18:17.507Z,4.50
2022-12-26T06:20:44.175Z,4.40
2022-12-26T06:23:10.817Z,4.50
2022-12-26T06:25:37.497Z,4.60
2022-12-26T06:28:04.369Z,4.60
2022-12-26T06:30:31.032Z,4.50
2022-12-26T06:32:57.881Z,4.50
2022-12-26T06:35:24.600Z,4.40
2022-12-26T06:37:52.012Z,4.40
2022-12-26T06:40:18.701Z,4.40
2022-12-26T06:42:45.392Z,4.40
2022-12-26T06:45:12.030Z,4.40
2022-12-26T06:47:38.889Z,4.40
2022-12-26T06:50:06.082Z,4.50
2022-12-26T06:52:32.787Z,4.60
2022-12-26T06:54:59.526Z,4.60
2022-12-26T06:57:26.407Z,4.70
2022-12-26T06:59:53.566Z,4.70
2022-12-26T07:02:20.790Z,4.80
2022-12-26T07:04:47.500Z,5.20
2022-12-26T07:07:14.304Z,5.80
2022-12-26T07:09:40.946Z,6.20
2022-12-26T07:12:07.675Z,6.70
2022-12-26T07:14:34.368Z,7.10
2022-12-26T07:17:02.256Z,7.50
2022-12-26T07:19:29.091Z,7.50
2022-12-26T07:21:55.829Z,7.30
2022-12-26T07:24:22.905Z,7.00
2022-12-26T07:26:50.294Z,7.10
2022-12-26T07:29:17.219Z,7.30
2022-12-26T07:31:44.257Z,7.50
2022-12-26T07:34:11.042Z,7.90
2022-12-26T07:36:37.747Z,8.00
2022-12-26T07:39:04.443Z,8.20
2022-12-26T07:41:49.628Z,8.30
2022-12-26T07:44:16.297Z,8.30
2022-12-26T07:46:43.191Z,8.30
2022-12-26T07:49:12.241Z,8.20
2022-12-26T07:51:38.946Z,8.30
2022-12-26T07:54:11.058Z,8.30
2022-12-26T07:56:38.843Z,8.30
2022-12-26T07:59:05.816Z,8.40
2022-12-26T08:01:32.634Z,8.50
2022-12-26T08:03:59.935Z,8.60
2022-12-26T08:06:27.668Z,8.80
2022-12-26T08:08:54.334Z,8.80
2022-12-26T08:11:23.687Z,8.90
2022-12-26T08:13:51.177Z,9.00
2022-12-26T08:16:18.047Z,9.00
2022-12-26T08:18:44.969Z,9.10
2022-12-26T08:21:12.689Z,9.10
2022-12-26T08:23:39.457Z,9.10
2022-12-26T08:26:08.150Z,9.10
2022-12-26T08:28:35.201Z,9.20
2022-12-26T08:31:09.170Z,9.10
2022-12-26T08:33:36.214Z,9.10
2022-12-26T08:36:08.014Z,9.10
2022-12-26T08:38:34.864Z,9.10
2022-12-26T08:41:02.224Z,9.20
2022-12-26T08:43:58.418Z,9.20
2022-12-26T08:46:15.901Z,9.30
2022-12-26T08:48:44.178Z,9.40
2022-12-26T08:51:25.010Z,9.40
2022-12-26T08:53:53.214Z,9.40
2022-12-26T08:56:25.160Z,9.50
2022-12-26T08:58:52.157Z,9.50
2022-12-26T09:01:27.337Z,9.60
2022-12-26T09:03:59.170Z,9.70
2022-12-26T09:06:26.541Z,9.80
2022-12-26T09:08:53.613Z,9.90
2022-12-26T09:11:23.416Z,10.10
2022-12-26T09:13:50.523Z,10.20
2022-12-26T09:16:22.338Z,10.30
2022-12-26T09:18:52.837Z,10.40
2022-12-26T09:21:19.521Z,10.60
2022-12-26T09:23:46.223Z,10.70
2022-12-26T09:26:19.639Z,10.80
2022-12-26T09:28:47.277Z,11.00
2022-12-26T09:31:26.052Z,11.00
2022-12-26T09:33:56.050Z,11.20
2022-12-26T09:36:26.669Z,11.20
2022-12-26T09:38:54.975Z,11.30
2022-12-26T09:41:42.377Z,11.40
2022-12-26T09:44:36.754Z,11.50
2022-12-26T09:47:03.393Z,11.50
2022-12-26T09:49:38.026Z,11.60
2022-12-26T09:52:19.312Z,11.70
2022-12-26T09:54:59.647Z,11.80
2022-12-26T09:57:43.950Z,11.70
2022-12-26T10:00:20.439Z,11.80
2022-12-26T10:02:52.982Z,11.90
2022-12-26T10:05:21.977Z,11.90
2022-12-26T10:08:03.673Z,11.90
2022-12-26T10:10:45.930Z,12.00
2022-12-26T10:13:23.121Z,12.10
2022-12-26T10:15:55.876Z,12.10
2022-12-26T10:18:54.461Z,12.20
2022-12-26T10:21:42.516Z,12.30
2022-12-26T10:24:16.721Z,12.30
2022-12-26T10:26:56.943Z,12.40
2022-12-26T10:29:26.739Z,12.50
2022-12-26T10:32:08.526Z,12.60
2022-12-26T10:34:43.915Z,12.70
2022-12-26T10:37:14.029Z,12.80
2022-12-26T10:39:51.830Z,12.90
2022-12-26T10:42:39.643Z,13.00
2022-12-26T10:45:20.932Z,13.10
2022-12-26T10:47:50.554Z,13.10
2022-12-26T10:50:25.433Z,13.20
2022-12-26T10:52:55.050Z,13.10
2022-12-26T10:55:31.954Z,13.10
2022-12-26T10:58:14.477Z,12.90
2022-12-26T11:00:41.181Z,12.70
2022-12-26T11:03:17.451Z,12.60
2022-12-26T11:06:07.382Z,12.40
2022-12-26T11:08:49.386Z,12.20
2022-12-26T11:11:46.391Z,12.10
2022-12-26T11:14:33.836Z,11.90
2022-12-26T11:17:08.927Z,11.80
2022-12-26T11:19:39.671Z,11.70
2022-12-26T11:22:26.135Z,11.70
2022-12-26T11:25:27.499Z,11.60
2022-12-26T11:27:57.393Z,11.50
2022-12-26T11:30:31.537Z,11.40
2022-12-26T11:33:14.073Z,11.30
2022-12-26T11:35:54.950Z,11.10
2022-12-26T11:38:39.062Z,10.80
2022-12-26T11:41:39.543Z,10.70
2022-12-26T11:44:13.194Z,10.40
2022-12-26T11:47:00.270Z,10.20
2022-12-26T11:49:47.108Z,10.00
2022-12-26T11:52:32.576Z,9.60
2022-12-26T11:54:59.792Z,9.30
2022-12-26T11:57:31.926Z,9.20
2022-12-26T12:00:17.385Z,8.90
2022-12-26T12:02:44.314Z,8.70
2022-12-26T12:05:28.536Z,8.50
2022-12-26T12:08:25.467Z,8.30
2022-12-26T12:11:16.177Z,8.20
2022-12-26T12:14:12.411Z,8.10
2022-12-26T12:17:21.864Z,8.10
2022-12-26T12:20:25.152Z,8.10
2022-12-26T12:22:51.790Z,8.00
2022-12-26T12:25:30.361Z,8.10
2022-12-26T12:28:15.699Z,8.10
2022-12-26T12:31:04.460Z,8.10
2022-12-26T12:33:55.292Z,8.10
2022-12-26T12:36:34.176Z,8.10
2022-12-26T12:39:10.692Z,8.10
2022-12-26T12:41:45.228Z,8.00
2022-12-26T12:44:56.541Z,8.00
2022-12-26T12:47:48.076Z,8.00
2022-12-26T12:50:29.407Z,8.00
2022-12-26T12:53:05.399Z,8.00
2022-12-26T12:55:51.412Z,7.90
2022-12-26T12:58:27.522Z,7.90
2022-12-26T13:01:03.210Z,7.90
2022-12-26T13:03:40.216Z,7.80
2022-12-26T13:06:13.735Z,7.80
2022-12-26T13:08:45.742Z,7.80
2022-12-26T13:11:28.971Z,7.80
2022-12-26T13:14:11.016Z,7.90
2022-12-26T13:16:43.499Z,7.80
2022-12-26T13:19:17.988Z,7.90
2022-12-26T13:21:48.016Z,7.80
2022-12-26T13:24:29.019Z,7.80
2022-12-26T13:27:06.812Z,7.80
2022-12-26T13:29:45.092Z,7.80
2022-12-26T13:32:26.543Z,7.70
2022-12-26T13:34:56.948Z,7.70
2022-12-26T13:37:55.239Z,7.80
2022-12-26T13:40:26.063Z,7.70
2022-12-26T13:43:21.398Z,7.70
2022-12-26T13:45:57.423Z,7.70
2022-12-26T13:48:27.288Z,7.70
2022-12-26T13:50:56.988Z,7.60
2022-12-26T13:53:26.663Z,7.60
2022-12-26T13:55:58.008Z,7.60
2022-12-26T13:58:36.322Z,7.60
2022-12-26T14:01:07.752Z,7.60
2022-12-26T14:03:52.432Z,7.60
2022-12-26T14:06:31.135Z,7.60
2022-12-26T14:09:31.492Z,7.60
2022-12-26T14:12:12.846Z,7.60
2022-12-26T14:15:01.858Z,7.50
2022-12-26T14:17:55.361Z,7.50
2022-12-26T14:20:49.907Z,7.50
2022-12-26T14:23:45.556Z,7.50
2022-12-26T14:26:48.682Z,7.50
2022-12-26T14:29:15.239Z,7.50
2022-12-26T14:32:01.995Z,7.50
2022-12-26T14:34:56.196Z,7.50
2022-12-26T14:37:40.795Z,7.50
2022-12-26T14:40:28.993Z,7.50
2022-12-26T14:43:10.742Z,7.40
2022-12-26T14:45:37.531Z,7.30
2022-12-26T14:48:24.200Z,7.30
2022-12-26T14:50:56.279Z,7.30
2022-12-26T14:53:28.813Z,7.30
2022-12-26T14:56:07.638Z,7.30
2022-12-26T14:58:44.837Z,7.20
2022-12-26T15:01:20.507Z,7.20
2022-12-26T15:04:08.905Z,7.20
2022-12-26T15:06:53.710Z,7.10
2022-12-26T15:09:55.814Z,7.00
2022-12-26T15:13:09.825Z,7.00
2022-12-26T15:16:03.125Z,6.90
2022-12-26T15:18:51.642Z,6.90
2022-12-26T15:21:30.821Z,6.80
2022-12-26T15:24:52.450Z,6.80
2022-12-26T15:28:03.689Z,6.80
2022-12-26T15:30:42.979Z,6.70
2022-12-26T15:33:34.076Z,6.70
2022-12-26T15:36:25.777Z,6.70
2022-12-26T15:39:04.904Z,6.70
2022-12-26T15:41:47.941Z,6.60
2022-12-26T15:44:34.232Z,6.60
2022-12-26T15:47:23.624Z,6.60
2022-12-26T15:50:28.103Z,6.60
2022-12-26T15:53:07.584Z,6.60
2022-12-26T15:56:03.732Z,6.60
2022-12-26T15:59:09.471Z,6.50
2022-12-26T16:01:41.742Z,6.50
2022-12-26T16:04:31.162Z,6.50
2022-12-26T16:07:17.016Z,6.50
2022-12-26T16:09:51.736Z,6.50
2022-12-26T16:12:22.986Z,6.50
2022-12-26T16:14:50.750Z,6.50
2022-12-26T16:17:22.086Z,6.50
2022-12-26T16:19:50.919Z,6.50
2022-12-26T16:22:49.517Z,6.50
2022-12-26T16:25:26.062Z,6.50
2022-12-26T16:27:58.517Z,6.40
2022-12-26T16:30:28.733Z,6.50
2022-12-26T16:32:55.850Z,6.50
2022-12-26T16:35:26.512Z,6.50
2022-12-26T16:37:55.305Z,6.50
2022-12-26T16:40:33.364Z,6.60
2022-12-26T16:43:23.874Z,6.60
2022-12-26T16:45:54.059Z,6.70
2022-12-26T16:48:23.239Z,6.70
2022-12-26T16:51:05.990Z,6.70
2022-12-26T16:53:35.703Z,6.70
2022-12-26T16:56:21.184Z,6.70
2022-12-26T16:59:01.227Z,6.70
2022-12-26T17:01:32.998Z,6.60
2022-12-26T17:04:04.355Z,6.60
2022-12-26T17:06:38.610Z,6.60
2022-12-26T17:09:17.219Z,6.60
2022-12-26T17:12:06.704Z,6.60
2022-12-26T17:14:36.004Z,6.60
2022-12-26T17:17:33.771Z,6.60
2022-12-26T17:20:23.122Z,6.70
2022-12-26T17:22:54.768Z,6.60
2022-12-26T17:25:27.718Z,6.70
2022-12-26T17:28:09.807Z,6.80
2022-12-26T17:30:37.536Z,6.70
2022-12-26T17:33:25.671Z,6.60
2022-12-26T17:38:54.200Z,6.50
2022-12-26T17:41:20.935Z,6.50
2022-12-26T17:43:48.401Z,6.50
2022-12-26T17:46:17.167Z,6.50
2022-12-26T17:48:44.619Z,6.50
2022-12-26T17:51:16.289Z,6.50
2022-12-26T17:53:47.664Z,6.50
2022-12-26T17:56:19.911Z,6.50
2022-12-26T17:58:47.602Z,6.40
2022-12-26T18:01:20.710Z,6.40
2022-12-26T18:03:48.446Z,6.40
2022-12-26T18:06:16.654Z,6.40
2022-12-26T18:08:44.398Z,6.30
2022-12-26T18:11:13.038Z,6.30
2022-12-26T18:13:40.003Z,6.20
2022-12-26T18:16:07.668Z,6.30
2022-12-26T18:18:39.660Z,6.40
2022-12-26T18:21:09.953Z,6.50
2022-12-26T18:23:37.425Z,6.50
2022-12-26T18:26:12.866Z,6.50
2022-12-26T18:28:39.643Z,6.50
2022-12-26T18:31:06.320Z,6.50
2022-12-26T18:33:33.072Z,6.50
2022-12-26T18:36:04.347Z,6.50
2022-12-26T18:38:33.986Z,6.50
2022-12-26T18:41:02.319Z,6.50
2022-12-26T18:43:28.994Z,6.50
2022-12-26T18:45:55.887Z,6.40
2022-12-26T18:48:22.667Z,6.50
2022-12-26T18:50:49.312Z,6.50
2022-12-26T18:53:16.266Z,6.60
2022-12-26T18:55:43.029Z,6.50
2022-12-26T18:58:10.374Z,6.50
2022-12-26T19:00:37.777Z,6.50
2022-12-26T19:03:04.571Z,6.50
2022-12-26T19:05:34.226Z,6.50
2022-12-26T19:08:02.009Z,6.50
2022-12-26T19:10:32.609Z,6.50
2022-12-26T19:13:05.809Z,6.60
2022-12-26T19:15:34.817Z,6.60
2022-12-26T19:18:02.283Z,6.70
2022-12-26T19:20:29.123Z,6.70
2022-12-26T19:22:56.120Z,6.70
2022-12-26T19:25:24.546Z,6.70
2022-12-26T19:27:51.435Z,6.70
2022-12-26T19:30:18.813Z,6.70
2022-12-26T19:32:46.021Z,6.70
2022-12-26T19:35:13.927Z,6.70
2022-12-26T19:37:41.194Z,6.70
2022-12-26T19:40:09.659Z,6.80
2022-12-26T19:42:37.369Z,6.70
2022-12-26T19:45:09.240Z,6.70
2022-12-26T19:47:36.473Z,6.70
2022-12-26T19:50:05.392Z,6.70
2022-12-26T19:52:32.135Z,6.80
2022-12-26T19:54:58.781Z,6.80
2022-12-26T19:57:25.530Z,6.80
2022-12-26T19:59:52.190Z,6.80
2022-12-26T20:02:19.039Z,6.80
2022-12-26T20:04:45.963Z,6.70
2022-12-26T20:07:12.606Z,6.70
2022-12-26T20:09:39.362Z,6.70
2022-12-26T20:12:06.261Z,6.70
2022-12-26T20:14:32.929Z,6.70
2022-12-26T20:17:08.806Z,6.70
2022-12-26T20:19:36.761Z,6.70
2022-12-26T20:22:04.724Z,6.80
2022-12-26T20:24:31.486Z,6.80
2022-12-26T20:26:58.195Z,6.80
2022-12-26T20:29:24.978Z,6.80
2022-12-26T20:31:54.981Z,6.70
2022-12-26T20:34:21.879Z,6.80
2022-12-26T20:36:48.577Z,6.80
2022-12-26T20:39:18.431Z,6.80
2022-12-26T20:41:45.882Z,6.70
2022-12-26T20:44:14.108Z,6.80
2022-12-26T20:46:42.218Z,6.80
2022-12-26T20:49:09.841Z,6.80
2022-12-26T20:51:39.390Z,6.80
2022-12-26T20:54:07.548Z,6.80
2022-12-26T20:56:35.725Z,6.90
2022-12-26T20:59:03.261Z,6.90
2022-12-26T21:01:30.620Z,6.90
2022-12-26T21:03:58.162Z,6.90
2022-12-26T21:06:30.365Z,6.90
2022-12-26T21:08:57.901Z,7.10
2022-12-26T21:11:33.770Z,7.10
2022-12-26T21:14:11.046Z,7.10
2022-12-26T21:16:41.049Z,7.20
2022-12-26T21:19:14.687Z,7.20
2022-12-26T21:21:44.314Z,7.30
2022-12-26T21:24:17.046Z,7.30
2022-12-26T21:26:44.489Z,7.30
2022-12-26T21:29:14.246Z,7.20
2022-12-26T21:31:41.485Z,7.20
2022-12-26T21:34:08.768Z,7.00
2022-12-26T21:36:35.833Z,6.80
2022-12-26T21:39:07.341Z,6.70
2022-12-26T21:41:34.032Z,6.50
2022-12-26T21:44:01.153Z,6.30
2022-12-26T21:46:28.053Z,6.20
2022-12-26T21:48:55.183Z,6.00
2022-12-26T21:51:26.730Z,5.90
2022-12-26T21:54:13.577Z,5.80
2022-12-26T21:56:40.236Z,5.80
2022-12-26T21:59:25.316Z,5.70
2022-12-26T22:01:52.012Z,5.60
2022-12-26T22:04:18.737Z,5.40
2022-12-26T22:06:45.540Z,5.40
2022-12-26T22:09:12.648Z,5.30
2022-12-26T22:11:57.862Z,5.30
2022-12-26T22:14:24.701Z,5.40
2022-12-26T22:16:52.819Z,5.30
2022-12-26T22:19:19.469Z,5.20
2022-12-26T22:21:46.296Z,5.20
2022-12-26T22:24:13.060Z,5.20
2022-12-26T22:26:39.776Z,5.20
2022-12-26T22:29:06.440Z,5.20
2022-12-26T22:31:35.654Z,5.10
2022-12-26T22:34:09.512Z,5.10
2022-12-26T22:36:36.220Z,5.10
2022-12-26T22:39:03.853Z,5.10
2022-12-26T22:41:30.830Z,5.20
2022-12-26T22:43:57.484Z,5.20
2022-12-26T22:46:25.069Z,5.10
2022-12-26T22:48:52.065Z,5.10
2022-12-26T22:51:23.929Z,5.10
2022-12-26T22:53:54.358Z,5.10
2022-12-26T22:56:21.205Z,5.10
2022-12-26T22:58:47.924Z,5.10
2022-12-26T23:01:17.224Z,5.10
2022-12-26T23:03:44.519Z,5.10
2022-12-26T23:06:26.142Z,5.20
2022-12-26T23:08:56.558Z,5.20
2022-12-26T23:11:30.337Z,5.10
2022-12-26T23:14:01.846Z,5.10
2022-12-26T23:16:43.666Z,5.10
2022-12-26T23:19:52.562Z,5.10
2022-12-26T23:22:19.500Z,5.10
2022-12-26T23:24:46.211Z,5.10
2022-12-26T23:27:31.569Z,5.10
2022-12-26T23:30:17.114Z,5.10
2022-12-26T23:32:45.553Z,5.20
2022-12-26T23:35:12.689Z,5.20
2022-12-26T23:37:41.290Z,5.20
2022-12-26T23:40:10.411Z,5.20
2022-12-26T23:42:37.676Z,5.20
2022-12-26T23:45:05.074Z,5.30
2022-12-26T23:47:31.965Z,5.30
2022-12-26T23:49:58.635Z,5.40
2022-12-26T23:52:30.060Z,5.40
2022-12-26T23:54:57.484Z,5.40
2022-12-26T23:57:24.146Z,5.50
2022-12-26T23:59:50.864Z,5.50
